createdAt,value
2022-10-17T00:08:42.274Z,79.84
2022-10-17T00:18:43.870Z,78.95
2022-10-17T00:28:49.022Z,80.35
2022-10-17T00:38:52.917Z,79.47
2022-10-17T00:48:55.855Z,76.21
2022-10-17T00:58:58.188Z,78.63
2022-10-17T01:08:59.872Z,78.42
2022-10-17T01:19:31.801Z,76.66
2022-10-17T01:29:51.233Z,80.02
2022-10-17T01:39:54.859Z,81.50
2022-10-17T01:49:59.632Z,82.12
2022-10-17T02:00:02.904Z,81.63
2022-10-17T02:10:09.316Z,80.92
2022-10-17T02:20:26.155Z,81.44
2022-10-17T02:30:36.931Z,82.45
2022-10-17T02:40:39.927Z,85.22
2022-10-17T02:50:44.410Z,83.73
2022-10-17T03:00:46.024Z,81.75
2022-10-17T03:10:48.108Z,81.49
2022-10-17T03:20:49.696Z,83.54
2022-10-17T03:30:51.271Z,80.21
2022-10-17T03:40:56.382Z,81.38
2022-10-17T03:51:01.913Z,81.28
2022-10-17T04:01:04.324Z,82.07
2022-10-17T04:11:07.362Z,80.05
2022-10-17T04:21:11.743Z,78.98
2022-10-17T04:31:14.478Z,81.15
2022-10-17T04:41:17.341Z,77.63
2022-10-17T04:51:21.801Z,81.50
2022-10-17T05:01:26.681Z,80.95
2022-10-17T05:11:28.942Z,80.10
2022-10-17T05:21:30.759Z,80.47
2022-10-17T05:31:32.395Z,78.00
2022-10-17T05:41:34.108Z,77.60
2022-10-17T05:51:35.714Z,75.06
2022-10-17T06:01:37.324Z,73.52
2022-10-17T06:11:39.012Z,72.28
2022-10-17T06:21:40.552Z,69.79
2022-10-17T06:31:42.307Z,67.48
2022-10-17T06:41:44.762Z,67.18
2022-10-17T06:51:47.530Z,62.58
2022-10-17T07:01:49.308Z,62.16
2022-10-17T07:11:50.932Z,59.77
2022-10-17T07:21:53.142Z,57.68
2022-10-17T07:31:54.704Z,56.44
2022-10-17T07:41:56.267Z,54.57
2022-10-17T07:51:57.825Z,53.70
2022-10-17T08:01:59.710Z,53.45
2022-10-17T08:12:01.275Z,52.10
2022-10-17T08:22:02.928Z,50.15
2022-10-17T08:32:07.656Z,48.23
2022-10-17T08:42:29.525Z,47.22
2022-10-17T08:52:40.346Z,45.74
2022-10-17T09:03:08.177Z,45.20
2022-10-17T09:13:19.014Z,43.58
2022-10-17T09:23:30.416Z,44.10
2022-10-17T09:33:55.647Z,43.55
2022-10-17T09:43:58.376Z,42.84
2022-10-17T09:54:02.114Z,41.76
2022-10-17T10:04:14.530Z,41.29
2022-10-17T10:14:28.250Z,41.30
2022-10-17T10:24:31.184Z,41.48
2022-10-17T10:34:35.910Z,39.96
2022-10-17T10:44:39.456Z,40.17
2022-10-17T10:54:45.083Z,38.78
2022-10-17T11:15:57.925Z,37.09
2022-10-17T11:26:26.290Z,35.90
2022-10-17T11:36:34.667Z,34.64
2022-10-17T11:46:38.429Z,36.21
2022-10-17T11:56:47.478Z,35.73
2022-10-17T12:06:57.352Z,34.45
2022-10-17T12:17:06.629Z,35.78
2022-10-17T12:27:47.884Z,34.77
2022-10-17T12:37:51.600Z,34.31
2022-10-17T12:47:56.300Z,35.29
2022-10-17T12:58:04.584Z,34.98
2022-10-17T13:08:14.318Z,35.79
2022-10-17T13:18:25.083Z,34.67
2022-10-17T13:28:30.373Z,33.58
2022-10-17T13:49:55.418Z,34.75
2022-10-17T14:10:33.863Z,35.47
2022-10-17T14:31:10.775Z,39.92
2022-10-17T14:41:41.921Z,41.99
2022-10-17T14:52:07.763Z,43.33
2022-10-17T15:02:10.032Z,44.13
2022-10-17T15:12:16.375Z,45.55
2022-10-17T15:22:18.519Z,47.61
2022-10-17T15:32:20.016Z,48.12
2022-10-17T15:42:29.321Z,50.27
2022-10-17T15:52:30.889Z,52.84
2022-10-17T16:02:33.358Z,55.04
2022-10-17T16:12:41.791Z,56.30
2022-10-17T16:22:47.370Z,57.00
2022-10-17T16:32:49.293Z,58.22
2022-10-17T16:42:50.917Z,59.89
2022-10-17T16:52:52.955Z,60.54
2022-10-17T17:02:54.611Z,61.56
2022-10-17T17:12:57.272Z,60.21
2022-10-17T17:22:59.513Z,59.20
2022-10-17T17:33:01.199Z,58.78
2022-10-17T17:43:02.842Z,59.20
2022-10-17T17:53:05.474Z,60.51
2022-10-17T18:03:07.340Z,60.06
2022-10-17T18:13:08.852Z,60.71
2022-10-17T18:23:11.027Z,60.48
2022-10-17T18:33:12.635Z,61.95
2022-10-17T18:43:14.176Z,62.15
2022-10-17T18:53:15.663Z,62.38
2022-10-17T19:03:17.741Z,63.27
2022-10-17T19:13:21.546Z,65.04
2022-10-17T19:23:23.368Z,65.00
2022-10-17T19:33:25.130Z,65.04
2022-10-17T19:43:26.873Z,64.83
2022-10-17T19:53:29.643Z,66.85
2022-10-17T20:03:31.334Z,67.84
2022-10-17T20:13:34.369Z,68.10
2022-10-17T20:23:36.168Z,68.84
2022-10-17T20:33:37.803Z,67.23
2022-10-17T20:43:39.366Z,68.44
2022-10-17T20:53:40.953Z,69.38
2022-10-17T21:03:46.369Z,69.01
2022-10-17T21:13:53.347Z,69.95
2022-10-17T21:23:56.634Z,68.39
2022-10-17T21:34:00.436Z,69.02
2022-10-17T21:44:04.336Z,70.18
2022-10-17T21:54:06.140Z,71.06
2022-10-17T22:04:10.253Z,71.69
2022-10-17T22:14:14.501Z,72.69
2022-10-17T22:24:16.932Z,73.74
2022-10-17T22:34:18.473Z,73.19
2022-10-17T22:44:20.042Z,73.22
2022-10-17T22:54:21.571Z,74.21
2022-10-17T23:04:23.063Z,73.53
2022-10-17T23:14:24.566Z,73.48
2022-10-17T23:24:26.216Z,74.92
2022-10-17T23:34:28.744Z,74.29
2022-10-17T23:44:30.209Z,74.35
2022-10-17T23:54:31.894Z,73.56
